createdAt,value
2018-03-11T00:00:01.903Z,92.83
2018-03-11T00:01:01.544Z,92.91
2018-03-11T00:02:01.587Z,93.22
2018-03-11T00:03:01.556Z,92.99
2018-03-11T00:04:01.606Z,92.78
2018-03-11T00:05:01.557Z,92.64
2018-03-11T00:06:01.567Z,92.64
2018-03-11T00:07:01.566Z,92.59
2018-03-11T00:08:01.567Z,92.79
2018-03-11T00:09:02.053Z,92.64
2018-03-11T00:10:01.659Z,92.71
2018-03-11T00:11:01.743Z,92.96
2018-03-11T00:12:01.590Z,92.87
2018-03-11T00:13:01.592Z,92.95
2018-03-11T00:14:01.704Z,92.7
2018-03-11T00:15:01.599Z,92.64
2018-03-11T00:16:01.671Z,92.72
2018-03-11T00:17:01.645Z,92.83
2018-03-11T00:18:01.601Z,92.89
2018-03-11T00:19:01.602Z,92.82
2018-03-11T00:20:01.605Z,92.91
2018-03-11T00:21:01.614Z,92.73
2018-03-11T00:22:01.609Z,92.93
2018-03-11T00:23:01.620Z,92.95
2018-03-11T00:24:01.630Z,92.88
2018-03-11T00:25:01.633Z,93.03
2018-03-11T00:26:01.730Z,93.04
2018-03-11T00:27:01.655Z,93.1
2018-03-11T00:28:01.641Z,92.95
2018-03-11T00:29:01.644Z,92.97
2018-03-11T00:30:01.644Z,93.21
2018-03-11T00:31:01.644Z,92.96
2018-03-11T00:32:01.691Z,92.86
2018-03-11T00:33:01.658Z,93.27
2018-03-11T00:34:01.660Z,93.23
2018-03-11T00:35:01.687Z,93.28
2018-03-11T00:36:01.662Z,93.06
2018-03-11T00:37:01.703Z,93.12
2018-03-11T00:38:01.687Z,92.98
2018-03-11T00:39:01.669Z,93.18
2018-03-11T00:40:01.676Z,93.45
2018-03-11T00:41:01.672Z,93.15
2018-03-11T00:42:01.687Z,93.29
2018-03-11T00:43:01.691Z,93.19
2018-03-11T00:44:01.687Z,93.14
2018-03-11T00:45:01.688Z,92.9
2018-03-11T00:46:01.703Z,92.83
2018-03-11T00:47:01.705Z,92.77
2018-03-11T00:48:01.699Z,92.77
2018-03-11T00:49:01.971Z,92.85
2018-03-11T00:50:01.697Z,92.77
2018-03-11T00:51:01.700Z,92.63
2018-03-11T00:52:01.702Z,92.49
2018-03-11T00:53:01.723Z,92.68
2018-03-11T00:54:01.724Z,92.64
2018-03-11T00:55:01.708Z,92.44
2018-03-11T00:56:01.716Z,92.69
2018-03-11T00:57:01.715Z,92.43
2018-03-11T00:58:01.725Z,92.63
2018-03-11T00:59:01.776Z,92.3
2018-03-11T01:00:01.720Z,92.7
2018-03-11T01:01:01.720Z,92.58
2018-03-11T01:02:01.735Z,92.62
2018-03-11T01:03:01.735Z,92.59
2018-03-11T01:04:01.758Z,92.51
2018-03-11T01:05:01.739Z,92.57
2018-03-11T01:06:01.757Z,92.62
2018-03-11T01:07:02.073Z,92.62
2018-03-11T01:08:01.777Z,92.64
2018-03-11T01:09:01.761Z,92.65
2018-03-11T01:10:01.892Z,92.62
2018-03-11T01:11:01.760Z,92.41
2018-03-11T01:12:01.766Z,92.37
2018-03-11T01:13:01.768Z,92.52
2018-03-11T01:14:01.793Z,92.16
2018-03-11T01:15:01.825Z,92.21
2018-03-11T01:16:01.774Z,92.29
2018-03-11T01:17:01.793Z,92.24
2018-03-11T01:18:01.790Z,92.41
2018-03-11T01:19:04.838Z,92.35
2018-03-11T01:20:02.398Z,92.31
2018-03-11T01:21:01.962Z,92.34
2018-03-11T01:22:02.698Z,92.34
2018-03-11T01:23:02.846Z,92.2
2018-03-11T01:24:01.853Z,92.33
2018-03-11T01:25:02.722Z,92.38
2018-03-11T01:26:01.821Z,92.22
2018-03-11T01:27:01.823Z,92.12
2018-03-11T01:28:01.817Z,92.23
2018-03-11T01:29:01.821Z,92.24
2018-03-11T01:30:01.821Z,92.47
2018-03-11T01:31:01.820Z,92.62
2018-03-11T01:32:01.825Z,92.39
2018-03-11T01:33:01.832Z,92.05
2018-03-11T01:34:01.844Z,92.25
2018-03-11T01:35:01.839Z,92.29
2018-03-11T01:36:01.839Z,92.42
2018-03-11T01:37:01.848Z,92.26
2018-03-11T01:38:01.853Z,92.15
2018-03-11T01:39:01.857Z,91.76
2018-03-11T01:40:01.863Z,91.93
2018-03-11T01:41:01.873Z,92.03
2018-03-11T01:42:01.868Z,92.46
2018-03-11T01:43:01.874Z,92.51
2018-03-11T01:44:01.869Z,92.45
2018-03-11T01:45:01.880Z,92.58
2018-03-11T01:46:01.876Z,92.36
2018-03-11T01:47:01.902Z,92.51
2018-03-11T01:48:01.884Z,92.21
2018-03-11T01:49:01.905Z,92.37
2018-03-11T01:50:01.892Z,92.42
2018-03-11T01:51:01.896Z,92.32
2018-03-11T01:52:01.903Z,92.36
2018-03-11T01:53:01.903Z,92.39
2018-03-11T01:54:01.915Z,92.31
2018-03-11T01:55:01.917Z,92.31
2018-03-11T01:56:01.924Z,92.5
2018-03-11T01:57:01.947Z,92.26
2018-03-11T01:58:01.940Z,92.08
2018-03-11T01:59:01.932Z,92.15
2018-03-11T02:00:01.926Z,91.83
2018-03-11T02:01:01.935Z,92.05
2018-03-11T02:02:01.943Z,91.89
2018-03-11T02:03:01.945Z,91.85
2018-03-11T02:04:01.947Z,91.59
2018-03-11T02:05:01.955Z,91.6
2018-03-11T02:06:01.967Z,91.55
2018-03-11T02:07:01.956Z,91.51
2018-03-11T02:08:01.965Z,91.31
2018-03-11T02:09:01.987Z,91.21
2018-03-11T02:10:01.970Z,91.33
2018-03-11T02:11:01.984Z,90.96
2018-03-11T02:12:01.983Z,91.02
2018-03-11T02:13:01.980Z,91.09
2018-03-11T02:14:01.988Z,91.05
2018-03-11T02:15:02.005Z,90.97
2018-03-11T02:16:01.994Z,90.85
2018-03-11T02:17:01.997Z,90.71
2018-03-11T02:18:02.002Z,90.65
2018-03-11T02:19:02.004Z,90.47
2018-03-11T02:20:02.012Z,90.31
2018-03-11T02:21:02.008Z,90.42
2018-03-11T02:22:02.011Z,90.24
2018-03-11T02:23:02.013Z,89.96
2018-03-11T02:24:02.019Z,90.11
2018-03-11T02:25:02.021Z,90.09
2018-03-11T02:26:02.026Z,90.05
2018-03-11T02:27:02.040Z,90.15
2018-03-11T02:28:02.021Z,90.14
2018-03-11T02:29:02.028Z,90.13
2018-03-11T02:30:02.039Z,90.01
2018-03-11T02:31:02.030Z,89.82
2018-03-11T02:32:02.042Z,89.99
2018-03-11T02:33:02.072Z,90.03
2018-03-11T02:34:02.051Z,89.9
2018-03-11T02:35:02.055Z,89.91
2018-03-11T02:36:02.065Z,89.73
2018-03-11T02:37:02.057Z,89.82
2018-03-11T02:38:02.051Z,89.73
2018-03-11T02:39:02.054Z,89.87
2018-03-11T02:40:02.061Z,89.64
2018-03-11T02:41:02.098Z,89.72
2018-03-11T02:42:02.075Z,89.71
2018-03-11T02:43:02.076Z,89.68
2018-03-11T02:44:02.083Z,89.77
2018-03-11T02:45:02.094Z,89.81
2018-03-11T02:46:02.101Z,89.5
2018-03-11T02:47:02.110Z,89.62
2018-03-11T02:48:02.114Z,89.75
2018-03-11T02:49:02.160Z,89.48
2018-03-11T02:50:02.118Z,89.61
2018-03-11T02:51:02.126Z,89.45
2018-03-11T02:52:02.128Z,89.43
2018-03-11T02:53:02.132Z,89.3
2018-03-11T02:54:02.153Z,89.4
2018-03-11T02:55:02.138Z,89.1
2018-03-11T02:56:02.140Z,89.04
2018-03-11T02:57:02.136Z,89.05
2018-03-11T02:58:02.145Z,89.04
2018-03-11T02:59:02.150Z,88.99
2018-03-11T03:00:02.143Z,89.29
2018-03-11T03:01:02.167Z,89.04
2018-03-11T03:02:02.155Z,88.82
2018-03-11T03:03:02.154Z,89.09
2018-03-11T03:04:02.152Z,89.05
2018-03-11T03:05:02.162Z,88.78
2018-03-11T03:06:02.157Z,89.02
2018-03-11T03:07:02.166Z,88.72
2018-03-11T03:08:02.167Z,88.84
2018-03-11T03:09:02.166Z,88.63
2018-03-11T03:10:02.422Z,88.45
2018-03-11T03:11:02.176Z,88.89
2018-03-11T03:12:02.182Z,88.48
2018-03-11T03:13:02.183Z,88.6
2018-03-11T03:14:02.188Z,88.47
2018-03-11T03:15:02.212Z,88.51
2018-03-11T03:16:02.204Z,88.34
2018-03-11T03:17:02.204Z,88.12
2018-03-11T03:18:02.206Z,88.09
2018-03-11T03:19:02.203Z,88.16
2018-03-11T03:20:02.210Z,88.07
2018-03-11T03:21:02.216Z,88.08
2018-03-11T03:22:02.218Z,88.07
2018-03-11T03:23:02.217Z,87.76
2018-03-11T03:24:02.225Z,87.7
2018-03-11T03:25:02.231Z,87.66
2018-03-11T03:26:02.267Z,87.94
2018-03-11T03:27:02.236Z,88.11
2018-03-11T03:28:02.239Z,88.06
2018-03-11T03:29:02.244Z,88.07
2018-03-11T03:30:02.249Z,87.69
2018-03-11T03:31:02.544Z,87.77
2018-03-11T03:32:02.248Z,87.49
2018-03-11T03:33:02.259Z,87.3
2018-03-11T03:34:02.254Z,87.16
2018-03-11T03:35:02.252Z,87.5
2018-03-11T03:36:02.282Z,87.38
2018-03-11T03:37:02.257Z,87.19
2018-03-11T03:38:02.256Z,87.36
2018-03-11T03:39:02.254Z,87.56
2018-03-11T03:40:02.256Z,87.46
2018-03-11T03:41:02.256Z,87.08
2018-03-11T03:42:02.512Z,87.11
2018-03-11T03:43:02.351Z,87.21
2018-03-11T03:44:02.277Z,87.24
2018-03-11T03:45:02.367Z,87.29
2018-03-11T03:46:02.339Z,87.06
2018-03-11T03:47:02.369Z,87.12
2018-03-11T03:48:02.293Z,87.26
2018-03-11T03:49:02.361Z,87.15
2018-03-11T03:50:02.409Z,87.21
2018-03-11T03:51:02.302Z,86.83
2018-03-11T03:52:02.419Z,87.22
2018-03-11T03:53:02.313Z,87.05
2018-03-11T03:54:02.304Z,86.95
2018-03-11T03:55:02.305Z,87.21
2018-03-11T03:56:02.305Z,87.08
2018-03-11T03:57:02.310Z,87.2
2018-03-11T03:58:02.320Z,87
2018-03-11T03:59:02.320Z,86.98
2018-03-11T04:00:02.321Z,87.04
2018-03-11T04:01:02.335Z,87.18
2018-03-11T04:02:02.328Z,87.04
2018-03-11T04:03:02.346Z,86.83
2018-03-11T04:04:02.323Z,86.93
2018-03-11T04:05:02.323Z,86.84
2018-03-11T04:06:02.359Z,86.83
2018-03-11T04:07:02.327Z,86.81
2018-03-11T04:08:02.375Z,86.78
2018-03-11T04:09:02.345Z,86.74
2018-03-11T04:10:02.394Z,86.48
2018-03-11T04:11:02.362Z,86.59
2018-03-11T04:12:02.354Z,86.5
2018-03-11T04:13:02.366Z,86.56
2018-03-11T04:14:02.366Z,86.63
2018-03-11T04:15:02.383Z,86.85
2018-03-11T04:16:02.365Z,86.46
2018-03-11T04:17:02.420Z,86.57
2018-03-11T04:18:02.399Z,86.24
2018-03-11T04:19:02.377Z,86.02
2018-03-11T04:20:02.378Z,86.23
2018-03-11T04:21:02.415Z,86.12
2018-03-11T04:22:02.383Z,85.88
2018-03-11T04:23:02.385Z,86.25
2018-03-11T04:24:02.397Z,85.78
2018-03-11T04:25:02.395Z,86.01
2018-03-11T04:26:02.402Z,86.27
2018-03-11T04:27:02.408Z,86.17
2018-03-11T04:28:02.430Z,86.3
2018-03-11T04:29:02.412Z,86.41
2018-03-11T04:30:02.414Z,86.2
2018-03-11T04:31:02.426Z,86.2
2018-03-11T04:32:02.431Z,86.44
2018-03-11T04:33:02.439Z,86.4
2018-03-11T04:34:02.435Z,86.24
2018-03-11T04:35:02.467Z,86.37
2018-03-11T04:36:02.458Z,86.61
2018-03-11T04:37:02.468Z,86.44
2018-03-11T04:38:02.708Z,86.21
2018-03-11T04:39:02.445Z,86.16
2018-03-11T04:40:02.460Z,86.22
2018-03-11T04:41:02.458Z,86.09
2018-03-11T04:42:02.448Z,86.27
2018-03-11T04:43:02.482Z,86.12
2018-03-11T04:44:02.497Z,86.08
2018-03-11T04:45:02.451Z,86.16
2018-03-11T04:46:02.461Z,86.07
2018-03-11T04:47:02.465Z,85.97
2018-03-11T04:48:02.521Z,85.86
2018-03-11T04:49:02.480Z,86.13
2018-03-11T04:50:02.490Z,86.22
2018-03-11T04:51:02.498Z,86.06
2018-03-11T04:52:02.510Z,86.39
2018-03-11T04:53:02.487Z,86.14
2018-03-11T04:54:02.490Z,86.09
2018-03-11T04:55:02.496Z,86.12
2018-03-11T04:56:02.499Z,85.99
2018-03-11T04:57:02.499Z,86.21
2018-03-11T04:58:02.503Z,86.48
2018-03-11T04:59:02.813Z,86.44
2018-03-11T05:00:02.508Z,86.33
2018-03-11T05:01:02.523Z,86.38
2018-03-11T05:02:02.525Z,86.36
2018-03-11T05:03:02.527Z,86.19
2018-03-11T05:04:02.550Z,86.19
2018-03-11T05:05:02.554Z,86.31
2018-03-11T05:06:02.545Z,86.32
2018-03-11T05:07:02.536Z,86.42
2018-03-11T05:08:02.687Z,86.39
2018-03-11T05:09:02.531Z,86.16
2018-03-11T05:10:02.549Z,86.32
2018-03-11T05:11:02.534Z,86.06
2018-03-11T05:12:02.532Z,85.98
2018-03-11T05:13:02.536Z,86
2018-03-11T05:14:02.543Z,85.6
2018-03-11T05:15:02.810Z,85.8
2018-03-11T05:16:02.553Z,86.04
2018-03-11T05:17:02.558Z,85.81
2018-03-11T05:18:02.562Z,85.96
2018-03-11T05:19:02.569Z,86.2
2018-03-11T05:20:02.583Z,86.09
2018-03-11T05:21:02.563Z,86.27
2018-03-11T05:22:02.570Z,86.14
2018-03-11T05:23:02.598Z,85.88
2018-03-11T05:24:02.581Z,85.8
2018-03-11T05:25:02.576Z,85.93
2018-03-11T05:26:02.580Z,85.77
2018-03-11T05:27:02.578Z,85.94
2018-03-11T05:28:02.586Z,85.68
2018-03-11T05:29:02.585Z,85.74
2018-03-11T05:30:02.590Z,85.67
2018-03-11T05:31:02.599Z,85.92
2018-03-11T05:32:02.606Z,85.76
2018-03-11T05:33:02.611Z,85.75
2018-03-11T05:34:02.620Z,85.97
2018-03-11T05:35:02.625Z,85.99
2018-03-11T05:36:02.629Z,85.96
2018-03-11T05:37:02.636Z,85.91
2018-03-11T05:38:02.644Z,85.98
2018-03-11T05:39:02.637Z,86.01
2018-03-11T05:40:02.644Z,85.89
2018-03-11T05:41:02.648Z,86.16
2018-03-11T05:42:02.670Z,86.05
2018-03-11T05:43:02.649Z,86.15
2018-03-11T05:44:02.649Z,85.91
2018-03-11T05:45:02.656Z,85.87
2018-03-11T05:46:02.658Z,85.72
2018-03-11T05:47:02.690Z,85.54
2018-03-11T05:48:02.670Z,85.57
2018-03-11T05:49:02.667Z,85.7
2018-03-11T05:50:02.673Z,85.72
2018-03-11T05:51:02.676Z,85.77
2018-03-11T05:52:02.727Z,85.68
2018-03-11T05:53:02.683Z,85.71
2018-03-11T05:54:02.677Z,85.77
2018-03-11T05:55:02.701Z,85.81
2018-03-11T05:56:02.704Z,85.7
2018-03-11T05:57:02.698Z,85.78
2018-03-11T05:58:02.699Z,85.66
2018-03-11T05:59:02.705Z,85.43
2018-03-11T06:00:02.721Z,85.41
2018-03-11T06:01:02.715Z,85.5
2018-03-11T06:02:02.727Z,85.58
2018-03-11T06:03:02.719Z,85.71
2018-03-11T06:04:02.737Z,85.58
2018-03-11T06:05:02.729Z,85.68
2018-03-11T06:06:02.732Z,85.66
2018-03-11T06:07:02.737Z,85.72
2018-03-11T06:08:02.732Z,85.61
2018-03-11T06:09:02.740Z,85.77
2018-03-11T06:10:02.741Z,85.57
2018-03-11T06:11:02.759Z,85.66
2018-03-11T06:12:02.745Z,85.57
2018-03-11T06:13:02.746Z,85.44
2018-03-11T06:14:02.755Z,85.76
2018-03-11T06:15:02.760Z,85.5
2018-03-11T06:16:02.766Z,85.58
2018-03-11T06:17:02.762Z,85.62
2018-03-11T06:18:02.782Z,85.59
2018-03-11T06:19:02.787Z,85.54
2018-03-11T06:20:02.791Z,85.51
2018-03-11T06:21:02.772Z,85.75
2018-03-11T06:22:02.766Z,85.59
2018-03-11T06:23:02.771Z,85.75
2018-03-11T06:24:02.782Z,85.84
2018-03-11T06:25:02.787Z,85.82
2018-03-11T06:26:02.792Z,85.76
2018-03-11T06:27:02.793Z,85.79
2018-03-11T06:28:02.794Z,85.83
2018-03-11T06:29:02.800Z,85.73
2018-03-11T06:30:02.809Z,85.82
2018-03-11T06:31:02.807Z,85.72
2018-03-11T06:32:02.814Z,85.64
2018-03-11T06:33:02.817Z,85.56
2018-03-11T06:34:02.827Z,85.68
2018-03-11T06:35:02.831Z,85.58
2018-03-11T06:36:02.832Z,85.58
2018-03-11T06:37:02.840Z,85.7
2018-03-11T06:38:02.840Z,85.62
2018-03-11T06:39:02.852Z,85.43
2018-03-11T06:40:02.847Z,85.61
2018-03-11T06:41:02.873Z,85.61
2018-03-11T06:42:02.853Z,85.66
2018-03-11T06:43:02.858Z,85.4
2018-03-11T06:44:02.849Z,85.36
2018-03-11T06:45:02.854Z,85.5
2018-03-11T06:46:02.899Z,85.05
2018-03-11T06:47:02.862Z,85.41
2018-03-11T06:48:02.864Z,85.18
2018-03-11T06:49:02.881Z,84.84
2018-03-11T06:50:02.873Z,85.03
2018-03-11T06:51:02.895Z,85.02
2018-03-11T06:52:02.873Z,84.86
2018-03-11T06:53:02.871Z,84.75
2018-03-11T06:54:02.881Z,84.7
2018-03-11T06:55:02.879Z,84.45
2018-03-11T06:56:02.907Z,84.11
2018-03-11T06:57:02.885Z,84.12
2018-03-11T06:58:02.919Z,84.39
2018-03-11T06:59:02.893Z,83.88
2018-03-11T07:00:02.897Z,84.06
2018-03-11T07:01:02.899Z,83.78
2018-03-11T07:02:02.944Z,83.91
2018-03-11T07:03:02.909Z,83.86
2018-03-11T07:04:02.921Z,83.63
2018-03-11T07:05:02.925Z,83.72
2018-03-11T07:06:02.930Z,82.94
2018-03-11T07:07:02.923Z,83.22
2018-03-11T07:08:02.942Z,82.91
2018-03-11T07:09:02.930Z,82.94
2018-03-11T07:10:02.925Z,82.81
2018-03-11T07:11:02.934Z,82.96
2018-03-11T07:12:02.945Z,82.91
2018-03-11T07:13:02.967Z,82.89
2018-03-11T07:14:02.937Z,82.87
2018-03-11T07:15:02.935Z,83.16
2018-03-11T07:16:02.933Z,83.01
2018-03-11T07:17:02.942Z,83.32
2018-03-11T07:18:02.938Z,83.06
2018-03-11T07:19:02.949Z,83.21
2018-03-11T07:20:02.950Z,83.57
2018-03-11T07:21:02.947Z,83.26
2018-03-11T07:22:02.949Z,83.61
2018-03-11T07:23:02.958Z,83.51
2018-03-11T07:24:02.961Z,83.55
2018-03-11T07:25:02.965Z,83.85
2018-03-11T07:26:02.972Z,83.73
2018-03-11T07:27:02.986Z,83.93
2018-03-11T07:28:02.980Z,84
2018-03-11T07:29:02.971Z,84.32
2018-03-11T07:30:02.968Z,84.33
2018-03-11T07:31:02.986Z,84.17
2018-03-11T07:32:02.965Z,84.54
2018-03-11T07:33:02.968Z,84.57
2018-03-11T07:34:02.981Z,84.21
2018-03-11T07:35:02.988Z,84.51
2018-03-11T07:36:02.997Z,84.65
2018-03-11T07:37:02.996Z,84.77
2018-03-11T07:38:02.995Z,84.44
2018-03-11T07:39:02.996Z,84.41
2018-03-11T07:40:03.008Z,84.93
2018-03-11T07:41:03.006Z,84.51
2018-03-11T07:42:03.010Z,84.93
2018-03-11T07:43:03.010Z,84.81
2018-03-11T07:44:03.008Z,84.31
2018-03-11T07:45:03.013Z,84.38
2018-03-11T07:46:03.019Z,84.32
2018-03-11T07:47:03.023Z,84.38
2018-03-11T07:48:03.028Z,84.41
2018-03-11T07:49:03.034Z,84.42
2018-03-11T07:50:03.042Z,84.44
2018-03-11T07:51:03.037Z,84.25
2018-03-11T07:52:03.035Z,84.22
2018-03-11T07:53:03.050Z,84.38
2018-03-11T07:54:03.080Z,84.35
2018-03-11T07:55:03.044Z,84.42
2018-03-11T07:56:03.060Z,84.01
2018-03-11T07:57:03.072Z,84.1
2018-03-11T07:58:03.078Z,84.03
2018-03-11T07:59:03.101Z,83.9
2018-03-11T08:00:03.069Z,83.79
2018-03-11T08:01:03.098Z,83.69
2018-03-11T08:02:03.071Z,84.09
2018-03-11T08:03:03.081Z,83.7
2018-03-11T08:04:03.084Z,83.98
2018-03-11T08:05:04.085Z,83.87
2018-03-11T08:06:03.092Z,83.84
2018-03-11T08:07:03.099Z,83.49
2018-03-11T08:08:03.096Z,83.55
2018-03-11T08:09:03.100Z,83.34
2018-03-11T08:10:03.104Z,83.42
2018-03-11T08:11:03.099Z,83.22
2018-03-11T08:12:03.106Z,83.72
2018-03-11T08:13:03.109Z,83.46
2018-03-11T08:14:03.124Z,83.62
2018-03-11T08:15:03.124Z,83.56
2018-03-11T08:16:03.123Z,83.13
2018-03-11T08:17:03.134Z,83.38
2018-03-11T08:18:03.128Z,83.33
2018-03-11T08:19:03.135Z,83.42
2018-03-11T08:20:03.139Z,83.42
2018-03-11T08:21:03.153Z,83.81
2018-03-11T08:22:03.168Z,83.56
2018-03-11T08:23:03.166Z,83.45
2018-03-11T08:24:03.151Z,83.45
2018-03-11T08:25:03.143Z,83.53
2018-03-11T08:26:03.144Z,83.85
2018-03-11T08:27:03.145Z,83.99
2018-03-11T08:28:03.175Z,84.06
2018-03-11T08:29:03.156Z,84.07
2018-03-11T08:30:03.154Z,83.91
2018-03-11T08:31:03.155Z,83.84
2018-03-11T08:32:03.155Z,83.88
2018-03-11T08:33:03.214Z,84.25
2018-03-11T08:34:03.167Z,84.23
2018-03-11T08:35:03.168Z,84.17
2018-03-11T08:36:03.201Z,84.35
2018-03-11T08:37:03.178Z,84.43
2018-03-11T08:38:03.196Z,84.61
2018-03-11T08:39:03.178Z,84.73
2018-03-11T08:40:03.183Z,84.48
2018-03-11T08:41:03.181Z,84.46
2018-03-11T08:42:03.182Z,84.44
2018-03-11T08:43:03.188Z,84.14
2018-03-11T08:44:03.194Z,84.45
2018-03-11T08:45:03.275Z,84.55
2018-03-11T08:46:03.201Z,84.56
2018-03-11T08:47:03.200Z,84.75
2018-03-11T08:48:03.206Z,84.59
2018-03-11T08:49:03.216Z,84.35
2018-03-11T08:50:03.221Z,84.43
2018-03-11T08:51:03.224Z,84.25
2018-03-11T08:52:03.229Z,84.46
2018-03-11T08:53:03.229Z,84.7
2018-03-11T08:54:03.233Z,84.5
2018-03-11T08:55:03.244Z,84.5
2018-03-11T08:56:03.249Z,84.86
2018-03-11T08:57:03.250Z,84.83
2018-03-11T08:58:03.260Z,84.84
2018-03-11T08:59:03.255Z,84.65
2018-03-11T09:00:03.254Z,84.65
2018-03-11T09:01:03.264Z,84.37
2018-03-11T09:02:03.265Z,84.21
2018-03-11T09:03:03.266Z,84.43
2018-03-11T09:04:03.268Z,84.37
2018-03-11T09:05:03.323Z,84.54
2018-03-11T09:06:03.264Z,84.81
2018-03-11T09:07:03.276Z,84.83
2018-03-11T09:08:03.271Z,84.75
2018-03-11T09:09:03.280Z,84.65
2018-03-11T09:10:03.285Z,84.62
2018-03-11T09:11:03.299Z,84.46
2018-03-11T09:12:03.291Z,84.56
2018-03-11T09:13:03.289Z,84.59
2018-03-11T09:14:03.302Z,84.7
2018-03-11T09:15:03.306Z,84.73
2018-03-11T09:16:03.313Z,84.75
2018-03-11T09:17:03.321Z,84.88
2018-03-11T09:18:03.330Z,85.12
2018-03-11T09:19:03.332Z,84.8
2018-03-11T09:20:03.336Z,84.73
2018-03-11T09:21:03.334Z,84.96
2018-03-11T09:22:03.351Z,84.56
2018-03-11T09:23:03.333Z,84.56
2018-03-11T09:24:03.336Z,84.61
2018-03-11T09:25:03.342Z,84.52
2018-03-11T09:26:03.350Z,84.71
2018-03-11T09:27:03.353Z,84.66
2018-03-11T09:28:03.359Z,84.84
2018-03-11T09:29:03.365Z,85.04
2018-03-11T09:30:03.361Z,85
2018-03-11T09:31:03.369Z,84.94
2018-03-11T09:32:03.375Z,84.85
2018-03-11T09:33:03.385Z,84.82
2018-03-11T09:34:03.404Z,84.78
2018-03-11T09:35:03.397Z,84.79
2018-03-11T09:36:03.433Z,84.56
2018-03-11T09:37:03.414Z,84.15
2018-03-11T09:38:03.419Z,84.3
2018-03-11T09:39:03.435Z,84.08
2018-03-11T09:40:03.418Z,83.81
2018-03-11T09:41:03.411Z,83.92
2018-03-11T09:42:03.429Z,83.91
2018-03-11T09:43:03.426Z,83.99
2018-03-11T09:44:03.419Z,83.2
2018-03-11T09:45:03.435Z,82.34
2018-03-11T09:46:03.416Z,82.34
2018-03-11T09:47:03.429Z,81.5
2018-03-11T09:48:03.417Z,81.87
2018-03-11T09:49:03.440Z,81.84
2018-03-11T09:50:03.431Z,82
2018-03-11T09:51:03.429Z,81.9
2018-03-11T09:52:03.436Z,81.55
2018-03-11T09:53:03.449Z,81.67
2018-03-11T09:54:03.443Z,81.61
2018-03-11T09:55:03.452Z,81.44
2018-03-11T09:56:03.458Z,81.44
2018-03-11T09:57:03.464Z,81.6
2018-03-11T09:58:03.521Z,81.31
2018-03-11T09:59:03.471Z,80.93
2018-03-11T10:00:03.473Z,80.58
2018-03-11T10:01:03.483Z,80.79
2018-03-11T10:02:03.619Z,80.68
2018-03-11T10:03:03.554Z,80.74
2018-03-11T10:04:03.498Z,80.97
2018-03-11T10:05:03.493Z,81.11
2018-03-11T10:06:03.494Z,81.23
2018-03-11T10:07:03.498Z,81.8
2018-03-11T10:08:03.507Z,82.23
2018-03-11T10:09:03.570Z,82.3
2018-03-11T10:10:03.509Z,82.99
2018-03-11T10:11:03.509Z,82.87
2018-03-11T10:12:03.517Z,82.68
2018-03-11T10:13:03.544Z,82.87
2018-03-11T10:14:03.528Z,82.66
2018-03-11T10:15:03.530Z,82.3
2018-03-11T10:16:03.525Z,82.11
2018-03-11T10:17:03.526Z,82.3
2018-03-11T10:18:03.814Z,82.58
2018-03-11T10:19:03.541Z,82.87
2018-03-11T10:20:03.541Z,82.74
2018-03-11T10:21:03.599Z,82.76
2018-03-11T10:22:03.540Z,82.47
2018-03-11T10:23:03.570Z,82.35
2018-03-11T10:24:03.556Z,82.48
2018-03-11T10:25:03.560Z,82.62
2018-03-11T10:26:03.549Z,82.25
2018-03-11T10:27:03.561Z,82.67
2018-03-11T10:28:03.633Z,82.58
2018-03-11T10:29:03.562Z,82.39
2018-03-11T10:30:03.760Z,82.27
2018-03-11T10:31:03.572Z,82.78
2018-03-11T10:32:03.606Z,82.42
2018-03-11T10:33:03.599Z,81.69
2018-03-11T10:34:03.574Z,81.46
2018-03-11T10:35:03.581Z,81.53
2018-03-11T10:36:03.583Z,81.69
2018-03-11T10:37:03.603Z,81.87
2018-03-11T10:38:03.585Z,81.39
2018-03-11T10:39:03.587Z,81.43
2018-03-11T10:40:03.646Z,81.29
2018-03-11T10:41:03.587Z,81.29
2018-03-11T10:42:03.597Z,81.31
2018-03-11T10:43:03.610Z,81.73
2018-03-11T10:44:03.604Z,81.92
2018-03-11T10:45:03.643Z,81.58
2018-03-11T10:46:03.618Z,81.86
2018-03-11T10:47:03.619Z,82.11
2018-03-11T10:48:03.619Z,82.33
2018-03-11T10:49:03.613Z,82.02
2018-03-11T10:50:03.610Z,81.76
2018-03-11T10:51:03.619Z,81.28
2018-03-11T10:52:03.630Z,80.97
2018-03-11T10:53:03.889Z,81.73
2018-03-11T10:54:03.638Z,82.12
2018-03-11T10:55:03.650Z,82.31
2018-03-11T10:56:03.642Z,81.97
2018-03-11T10:57:03.657Z,82.01
2018-03-11T10:58:03.804Z,81.98
2018-03-11T10:59:03.681Z,82.16
2018-03-11T11:00:03.659Z,82.05
2018-03-11T11:01:03.659Z,81.58
2018-03-11T11:02:03.740Z,81.77
2018-03-11T11:03:03.687Z,82.02
2018-03-11T11:04:03.678Z,81.97
2018-03-11T11:05:03.681Z,81.69
2018-03-11T11:06:03.678Z,81.75
2018-03-11T11:07:03.680Z,81.76
2018-03-11T11:08:03.712Z,81.57
2018-03-11T11:09:03.680Z,81.36
2018-03-11T11:10:03.685Z,81.67
2018-03-11T11:11:03.733Z,81.7
2018-03-11T11:12:05.287Z,81.07
2018-03-11T11:13:04.966Z,80.59
2018-03-11T11:14:04.074Z,81.08
2018-03-11T11:15:03.722Z,81.49
2018-03-11T11:16:03.745Z,81.72
2018-03-11T11:17:03.753Z,81.65
2018-03-11T11:18:03.777Z,81.07
2018-03-11T11:19:03.778Z,81.05
2018-03-11T11:20:03.736Z,81
2018-03-11T11:21:03.799Z,81.05
2018-03-11T11:22:07.719Z,80.97
2018-03-11T11:23:07.251Z,81.17
2018-03-11T11:24:03.766Z,81.02
2018-03-11T11:25:03.831Z,81.25
2018-03-11T11:26:03.828Z,80.89
2018-03-11T11:27:03.770Z,80.98
2018-03-11T11:28:03.770Z,80.98
2018-03-11T11:29:03.854Z,80.96
2018-03-11T11:30:03.782Z,81.13
2018-03-11T11:31:03.864Z,81.17
2018-03-11T11:32:03.802Z,81.25
2018-03-11T11:33:03.798Z,81.16
2018-03-11T11:34:03.810Z,81.46
2018-03-11T11:35:03.808Z,81.18
2018-03-11T11:36:03.813Z,81.33
2018-03-11T11:37:03.820Z,81.64
2018-03-11T11:38:03.985Z,81.45
2018-03-11T11:39:03.830Z,81.38
2018-03-11T11:40:03.851Z,80.49
2018-03-11T11:41:03.833Z,80.5
2018-03-11T11:42:03.838Z,80.69
2018-03-11T11:43:03.895Z,79.97
2018-03-11T11:44:03.859Z,80.33
2018-03-11T11:45:03.843Z,80.62
2018-03-11T11:46:03.846Z,80.49
2018-03-11T11:47:03.862Z,80.46
2018-03-11T11:48:03.867Z,81.06
2018-03-11T11:49:03.848Z,80.49
2018-03-11T11:50:03.857Z,80.12
2018-03-11T11:51:03.862Z,80.46
2018-03-11T11:52:03.862Z,80.83
2018-03-11T11:53:03.896Z,80.17
2018-03-11T11:54:03.874Z,80.75
2018-03-11T11:55:03.875Z,80.49
2018-03-11T11:56:03.877Z,79.81
2018-03-11T11:57:03.879Z,79.67
2018-03-11T11:58:04.137Z,79.74
2018-03-11T11:59:03.881Z,80.04
2018-03-11T12:00:03.881Z,79.12
2018-03-11T12:01:03.881Z,78.46
2018-03-11T12:02:03.892Z,78.04
2018-03-11T12:03:03.918Z,78.34
2018-03-11T12:04:03.897Z,77.75
2018-03-11T12:05:03.897Z,78.41
2018-03-11T12:06:03.893Z,78.23
2018-03-11T12:07:03.938Z,78.09
2018-03-11T12:08:03.912Z,78.28
2018-03-11T12:09:03.914Z,77.92
2018-03-11T12:10:03.964Z,77.89
2018-03-11T12:11:03.911Z,76.17
2018-03-11T12:12:03.918Z,76.94
2018-03-11T12:13:03.980Z,76.43
2018-03-11T12:14:03.934Z,77.52
2018-03-11T12:15:03.936Z,76.22
2018-03-11T12:16:03.950Z,74.76
2018-03-11T12:17:03.978Z,75.48
2018-03-11T12:18:03.976Z,75.3
2018-03-11T12:19:03.966Z,75.05
2018-03-11T12:20:03.966Z,75.18
2018-03-11T12:21:03.984Z,74.55
2018-03-11T12:22:03.965Z,71.81
2018-03-11T12:23:03.993Z,72.7
2018-03-11T12:24:03.984Z,72.85
2018-03-11T12:25:03.974Z,72.57
2018-03-11T12:26:03.977Z,72.59
2018-03-11T12:27:03.984Z,71
2018-03-11T12:28:04.263Z,72.07
2018-03-11T12:29:03.992Z,70.61
2018-03-11T12:30:04.000Z,71.55
2018-03-11T12:31:04.001Z,71.91
2018-03-11T12:32:04.009Z,72.25
2018-03-11T12:33:04.026Z,72.14
2018-03-11T12:34:04.010Z,72.21
2018-03-11T12:35:04.035Z,72.04
2018-03-11T12:36:04.010Z,72.52
2018-03-11T12:37:04.019Z,72.88
2018-03-11T12:38:04.019Z,73.09
2018-03-11T12:39:04.018Z,73.62
2018-03-11T12:40:04.039Z,73.36
2018-03-11T12:41:04.061Z,72.58
2018-03-11T12:42:04.031Z,72.47
2018-03-11T12:43:04.027Z,73.06
2018-03-11T12:44:04.030Z,72.67
2018-03-11T12:45:04.060Z,72.56
2018-03-11T12:46:04.043Z,72.63
2018-03-11T12:47:04.072Z,72.27
2018-03-11T12:48:04.037Z,72.35
2018-03-11T12:49:04.036Z,73.43
2018-03-11T12:50:04.061Z,73.45
2018-03-11T12:51:04.044Z,72.44
2018-03-11T12:52:04.047Z,72.96
2018-03-11T12:53:04.051Z,72.84
2018-03-11T12:54:04.053Z,72.05
2018-03-11T12:55:04.063Z,72.48